sensor_id;sensor_type;location;lat;lon;timestamp;temperature;humidity
10123;DHT22;5101;49.038;8.710;2023-04-24T00:00:01;12.70;99.90
10123;DHT22;5101;49.038;8.710;2023-04-24T00:02:26;12.70;99.90
10123;DHT22;5101;49.038;8.710;2023-04-24T00:04:52;12.70;99.90
10123;DHT22;5101;49.038;8.710;2023-04-24T00:07:17;12.70;99.90
10123;DHT22;5101;49.038;8.710;2023-04-24T00:09:45;12.70;99.90
10123;DHT22;5101;49.038;8.710;2023-04-24T00:12:11;12.70;99.90
10123;DHT22;5101;49.038;8.710;2023-04-24T00:14:36;12.70;99.90
10123;DHT22;5101;49.038;8.710;2023-04-24T00:17:02;12.60;99.90
10123;DHT22;5101;49.038;8.710;2023-04-24T00:19:28;12.60;99.90
10123;DHT22;5101;49.038;8.710;2023-04-24T00:21:54;12.60;99.90
10123;DHT22;5101;49.038;8.710;2023-04-24T00:24:20;12.60;99.90
10123;DHT22;5101;49.038;8.710;2023-04-24T00:26:46;12.60;99.90
10123;DHT22;5101;49.038;8.710;2023-04-24T00:29:12;12.60;99.90
10123;DHT22;5101;49.038;8.710;2023-04-24T00:31:38;12.60;99.90
10123;DHT22;5101;49.038;8.710;2023-04-24T00:34:04;12.60;99.90
10123;DHT22;5101;49.038;8.710;2023-04-24T00:36:30;12.60;99.90
10123;DHT22;5101;49.038;8.710;2023-04-24T00:38:56;12.60;99.90
10123;DHT22;5101;49.038;8.710;2023-04-24T00:41:22;12.60;99.90
10123;DHT22;5101;49.038;8.710;2023-04-24T00:43:49;12.70;99.90
10123;DHT22;5101;49.038;8.710;2023-04-24T00:46:16;12.70;99.90
10123;DHT22;5101;49.038;8.710;2023-04-24T00:48:43;12.70;99.90
10123;DHT22;5101;49.038;8.710;2023-04-24T00:51:09;12.70;99.90
10123;DHT22;5101;49.038;8.710;2023-04-24T00:53:35;12.70;99.90
10123;DHT22;5101;49.038;8.710;2023-04-24T00:56:01;12.70;99.90
10123;DHT22;5101;49.038;8.710;2023-04-24T00:58:27;12.70;99.90
10123;DHT22;5101;49.038;8.710;2023-04-24T01:00:54;12.70;99.90
10123;DHT22;5101;49.038;8.710;2023-04-24T01:03:22;12.70;99.90
10123;DHT22;5101;49.038;8.710;2023-04-24T01:05:49;12.80;99.90
10123;DHT22;5101;49.038;8.710;2023-04-24T01:08:15;12.70;99.90
10123;DHT22;5101;49.038;8.710;2023-04-24T01:10:41;12.70;99.90
10123;DHT22;5101;49.038;8.710;2023-04-24T01:13:08;12.70;99.90
10123;DHT22;5101;49.038;8.710;2023-04-24T01:15:34;12.70;99.90
10123;DHT22;5101;49.038;8.710;2023-04-24T01:18:00;12.80;99.90
10123;DHT22;5101;49.038;8.710;2023-04-24T01:20:25;12.80;99.90
10123;DHT22;5101;49.038;8.710;2023-04-24T01:22:52;12.80;99.90
10123;DHT22;5101;49.038;8.710;2023-04-24T01:25:18;12.80;99.90
10123;DHT22;5101;49.038;8.710;2023-04-24T01:27:44;12.90;99.90
10123;DHT22;5101;49.038;8.710;2023-04-24T01:30:10;12.90;99.90
10123;DHT22;5101;49.038;8.710;2023-04-24T01:32:37;12.90;99.90
10123;DHT22;5101;49.038;8.710;2023-04-24T01:35:03;12.90;99.90
10123;DHT22;5101;49.038;8.710;2023-04-24T01:37:29;12.90;99.90
10123;DHT22;5101;49.038;8.710;2023-04-24T01:39:54;12.90;99.90
10123;DHT22;5101;49.038;8.710;2023-04-24T01:42:20;12.90;99.90
10123;DHT22;5101;49.038;8.710;2023-04-24T01:44:47;12.90;99.90
10123;DHT22;5101;49.038;8.710;2023-04-24T01:47:12;12.90;99.90
10123;DHT22;5101;49.038;8.710;2023-04-24T01:49:39;12.90;99.90
10123;DHT22;5101;49.038;8.710;2023-04-24T01:52:04;12.90;99.90
10123;DHT22;5101;49.038;8.710;2023-04-24T01:54:30;13.00;99.90
10123;DHT22;5101;49.038;8.710;2023-04-24T01:56:56;12.90;99.90
10123;DHT22;5101;49.038;8.710;2023-04-24T01:59:22;13.00;99.90
10123;DHT22;5101;49.038;8.710;2023-04-24T02:01:48;13.00;99.90
10123;DHT22;5101;49.038;8.710;2023-04-24T02:04:14;13.10;99.90
10123;DHT22;5101;49.038;8.710;2023-04-24T02:06:40;13.00;99.90
10123;DHT22;5101;49.038;8.710;2023-04-24T02:09:06;13.00;99.90
10123;DHT22;5101;49.038;8.710;2023-04-24T02:11:33;13.00;99.90
10123;DHT22;5101;49.038;8.710;2023-04-24T02:13:58;13.00;99.90
10123;DHT22;5101;49.038;8.710;2023-04-24T02:16:24;13.00;99.90
10123;DHT22;5101;49.038;8.710;2023-04-24T02:18:50;13.00;99.90
10123;DHT22;5101;49.038;8.710;2023-04-24T02:21:15;13.00;99.90
10123;DHT22;5101;49.038;8.710;2023-04-24T02:23:41;13.00;99.90
10123;DHT22;5101;49.038;8.710;2023-04-24T02:26:07;13.00;99.90
10123;DHT22;5101;49.038;8.710;2023-04-24T02:28:32;13.00;99.90
10123;DHT22;5101;49.038;8.710;2023-04-24T02:30:58;13.00;99.90
10123;DHT22;5101;49.038;8.710;2023-04-24T02:33:24;12.90;99.90
10123;DHT22;5101;49.038;8.710;2023-04-24T02:35:49;13.00;99.90
10123;DHT22;5101;49.038;8.710;2023-04-24T02:38:15;13.00;99.90
10123;DHT22;5101;49.038;8.710;2023-04-24T02:40:40;13.00;99.90
10123;DHT22;5101;49.038;8.710;2023-04-24T02:43:06;13.00;99.90
10123;DHT22;5101;49.038;8.710;2023-04-24T02:45:32;13.00;99.90
10123;DHT22;5101;49.038;8.710;2023-04-24T02:48:00;13.00;99.90
10123;DHT22;5101;49.038;8.710;2023-04-24T02:50:25;13.00;99.90
10123;DHT22;5101;49.038;8.710;2023-04-24T02:52:51;12.90;99.90
10123;DHT22;5101;49.038;8.710;2023-04-24T02:55:16;13.00;99.90
10123;DHT22;5101;49.038;8.710;2023-04-24T02:57:42;13.00;99.90
10123;DHT22;5101;49.038;8.710;2023-04-24T03:00:08;13.00;99.90
10123;DHT22;5101;49.038;8.710;2023-04-24T03:02:34;12.90;99.90
10123;DHT22;5101;49.038;8.710;2023-04-24T03:05:00;12.90;99.90
10123;DHT22;5101;49.038;8.710;2023-04-24T03:07:25;12.90;99.90
10123;DHT22;5101;49.038;8.710;2023-04-24T03:09:51;13.00;99.90
10123;DHT22;5101;49.038;8.710;2023-04-24T03:12:16;12.90;99.90
10123;DHT22;5101;49.038;8.710;2023-04-24T03:14:43;12.90;99.90
10123;DHT22;5101;49.038;8.710;2023-04-24T03:17:08;12.90;99.90
10123;DHT22;5101;49.038;8.710;2023-04-24T03:19:34;13.00;99.90
10123;DHT22;5101;49.038;8.710;2023-04-24T03:22:02;12.90;99.90
10123;DHT22;5101;49.038;8.710;2023-04-24T03:24:27;12.90;99.90
10123;DHT22;5101;49.038;8.710;2023-04-24T03:26:53;12.80;99.90
10123;DHT22;5101;49.038;8.710;2023-04-24T03:29:19;12.70;99.90
10123;DHT22;5101;49.038;8.710;2023-04-24T03:31:44;12.70;99.90
10123;DHT22;5101;49.038;8.710;2023-04-24T03:34:10;12.60;99.90
10123;DHT22;5101;49.038;8.710;2023-04-24T03:36:35;12.50;99.90
10123;DHT22;5101;49.038;8.710;2023-04-24T03:39:01;12.40;99.90
10123;DHT22;5101;49.038;8.710;2023-04-24T03:41:26;12.40;99.90
10123;DHT22;5101;49.038;8.710;2023-04-24T03:43:52;12.30;99.90
10123;DHT22;5101;49.038;8.710;2023-04-24T03:46:17;12.20;99.90
10123;DHT22;5101;49.038;8.710;2023-04-24T03:48:43;12.10;99.90
10123;DHT22;5101;49.038;8.710;2023-04-24T03:51:08;12.00;99.90
10123;DHT22;5101;49.038;8.710;2023-04-24T03:53:34;12.00;99.90
10123;DHT22;5101;49.038;8.710;2023-04-24T03:55:59;11.90;99.90
10123;DHT22;5101;49.038;8.710;2023-04-24T03:58:25;11.90;99.90
10123;DHT22;5101;49.038;8.710;2023-04-24T04:00:50;11.80;99.90
10123;DHT22;5101;49.038;8.710;2023-04-24T04:03:16;11.80;99.90
10123;DHT22;5101;49.038;8.710;2023-04-24T04:05:41;11.70;99.90
10123;DHT22;5101;49.038;8.710;2023-04-24T04:08:07;11.70;99.90
10123;DHT22;5101;49.038;8.710;2023-04-24T04:10:32;11.70;99.90
10123;DHT22;5101;49.038;8.710;2023-04-24T04:12:58;11.60;99.90
10123;DHT22;5101;49.038;8.710;2023-04-24T04:15:23;11.60;99.90
10123;DHT22;5101;49.038;8.710;2023-04-24T04:17:49;11.60;99.90
10123;DHT22;5101;49.038;8.710;2023-04-24T04:20:14;11.60;99.90
10123;DHT22;5101;49.038;8.710;2023-04-24T04:22:40;11.50;99.90
10123;DHT22;5101;49.038;8.710;2023-04-24T04:25:05;11.40;99.90
10123;DHT22;5101;49.038;8.710;2023-04-24T04:27:31;11.40;99.90
10123;DHT22;5101;49.038;8.710;2023-04-24T04:29:58;11.40;99.90
10123;DHT22;5101;49.038;8.710;2023-04-24T04:32:26;11.30;99.90
10123;DHT22;5101;49.038;8.710;2023-04-24T04:34:52;11.30;99.90
10123;DHT22;5101;49.038;8.710;2023-04-24T04:37:18;11.30;99.90
10123;DHT22;5101;49.038;8.710;2023-04-24T04:39:44;11.20;99.90
10123;DHT22;5101;49.038;8.710;2023-04-24T04:42:09;11.20;99.90
10123;DHT22;5101;49.038;8.710;2023-04-24T04:44:35;11.10;99.90
10123;DHT22;5101;49.038;8.710;2023-04-24T04:47:01;11.10;99.90
10123;DHT22;5101;49.038;8.710;2023-04-24T04:49:31;11.10;99.90
10123;DHT22;5101;49.038;8.710;2023-04-24T04:51:56;11.10;99.90
10123;DHT22;5101;49.038;8.710;2023-04-24T04:54:22;11.00;99.90
10123;DHT22;5101;49.038;8.710;2023-04-24T04:56:50;11.00;99.90
10123;DHT22;5101;49.038;8.710;2023-04-24T04:59:15;11.00;99.90
10123;DHT22;5101;49.038;8.710;2023-04-24T05:01:41;11.00;99.90
10123;DHT22;5101;49.038;8.710;2023-04-24T05:04:07;10.90;99.90
10123;DHT22;5101;49.038;8.710;2023-04-24T05:06:32;10.90;99.90
10123;DHT22;5101;49.038;8.710;2023-04-24T05:08:58;10.90;99.90
10123;DHT22;5101;49.038;8.710;2023-04-24T05:11:23;10.80;99.90
10123;DHT22;5101;49.038;8.710;2023-04-24T05:13:49;10.80;99.90
10123;DHT22;5101;49.038;8.710;2023-04-24T05:16:14;10.70;99.90
10123;DHT22;5101;49.038;8.710;2023-04-24T05:18:40;10.80;99.90
10123;DHT22;5101;49.038;8.710;2023-04-24T05:21:05;10.80;99.90
10123;DHT22;5101;49.038;8.710;2023-04-24T05:23:31;10.80;99.90
10123;DHT22;5101;49.038;8.710;2023-04-24T05:25:56;10.80;99.90
10123;DHT22;5101;49.038;8.710;2023-04-24T05:28:22;10.80;99.90
10123;DHT22;5101;49.038;8.710;2023-04-24T05:30:48;10.80;99.90
10123;DHT22;5101;49.038;8.710;2023-04-24T05:33:13;10.80;99.90
10123;DHT22;5101;49.038;8.710;2023-04-24T05:35:40;10.80;99.90
10123;DHT22;5101;49.038;8.710;2023-04-24T05:38:11;10.90;99.90
10123;DHT22;5101;49.038;8.710;2023-04-24T05:40:37;10.80;99.90
10123;DHT22;5101;49.038;8.710;2023-04-24T05:43:02;10.90;99.90
10123;DHT22;5101;49.038;8.710;2023-04-24T05:45:28;10.90;99.90
10123;DHT22;5101;49.038;8.710;2023-04-24T05:47:54;10.80;99.90
10123;DHT22;5101;49.038;8.710;2023-04-24T05:50:20;10.90;99.90
10123;DHT22;5101;49.038;8.710;2023-04-24T05:52:46;10.90;99.90
10123;DHT22;5101;49.038;8.710;2023-04-24T05:55:11;11.00;99.90
10123;DHT22;5101;49.038;8.710;2023-04-24T05:57:37;11.10;99.90
10123;DHT22;5101;49.038;8.710;2023-04-24T06:00:03;11.20;99.90
10123;DHT22;5101;49.038;8.710;2023-04-24T06:02:30;11.30;99.90
10123;DHT22;5101;49.038;8.710;2023-04-24T06:04:58;11.50;99.90
10123;DHT22;5101;49.038;8.710;2023-04-24T06:07:25;11.70;99.90
10123;DHT22;5101;49.038;8.710;2023-04-24T06:09:51;11.80;99.90
10123;DHT22;5101;49.038;8.710;2023-04-24T06:12:17;12.10;99.90
10123;DHT22;5101;49.038;8.710;2023-04-24T06:14:43;12.30;99.90
10123;DHT22;5101;49.038;8.710;2023-04-24T06:17:08;12.60;99.90
10123;DHT22;5101;49.038;8.710;2023-04-24T06:19:34;12.80;99.90
10123;DHT22;5101;49.038;8.710;2023-04-24T06:21:59;13.00;99.90
10123;DHT22;5101;49.038;8.710;2023-04-24T06:24:28;13.20;99.90
10123;DHT22;5101;49.038;8.710;2023-04-24T06:26:53;13.40;99.90
10123;DHT22;5101;49.038;8.710;2023-04-24T06:29:19;13.50;99.90
10123;DHT22;5101;49.038;8.710;2023-04-24T06:31:45;13.60;99.70
10123;DHT22;5101;49.038;8.710;2023-04-24T06:34:10;13.90;98.80
10123;DHT22;5101;49.038;8.710;2023-04-24T06:36:36;14.10;98.00
10123;DHT22;5101;49.038;8.710;2023-04-24T06:39:01;14.10;97.00
10123;DHT22;5101;49.038;8.710;2023-04-24T06:41:28;14.10;96.40
10123;DHT22;5101;49.038;8.710;2023-04-24T06:43:54;14.10;95.60
10123;DHT22;5101;49.038;8.710;2023-04-24T06:46:19;14.10;95.10
10123;DHT22;5101;49.038;8.710;2023-04-24T06:48:47;14.10;94.80
10123;DHT22;5101;49.038;8.710;2023-04-24T06:51:12;14.10;94.30
10123;DHT22;5101;49.038;8.710;2023-04-24T06:53:38;14.00;93.90
10123;DHT22;5101;49.038;8.710;2023-04-24T06:56:04;14.00;93.60
10123;DHT22;5101;49.038;8.710;2023-04-24T06:58:30;14.00;93.30
10123;DHT22;5101;49.038;8.710;2023-04-24T07:00:55;13.90;93.00
10123;DHT22;5101;49.038;8.710;2023-04-24T07:03:21;13.80;92.70
10123;DHT22;5101;49.038;8.710;2023-04-24T07:05:46;13.90;92.60
10123;DHT22;5101;49.038;8.710;2023-04-24T07:08:12;13.90;92.30
10123;DHT22;5101;49.038;8.710;2023-04-24T07:10:38;13.90;92.00
10123;DHT22;5101;49.038;8.710;2023-04-24T07:13:04;14.00;91.60
10123;DHT22;5101;49.038;8.710;2023-04-24T07:15:30;14.00;91.20
10123;DHT22;5101;49.038;8.710;2023-04-24T07:17:55;14.00;90.40
10123;DHT22;5101;49.038;8.710;2023-04-24T07:20:21;14.10;89.10
10123;DHT22;5101;49.038;8.710;2023-04-24T07:22:47;14.20;88.00
10123;DHT22;5101;49.038;8.710;2023-04-24T07:25:14;14.50;87.00
10123;DHT22;5101;49.038;8.710;2023-04-24T07:27:40;14.70;86.20
10123;DHT22;5101;49.038;8.710;2023-04-24T07:30:06;15.00;85.60
10123;DHT22;5101;49.038;8.710;2023-04-24T07:32:32;15.30;84.50
10123;DHT22;5101;49.038;8.710;2023-04-24T07:34:57;15.40;83.00
10123;DHT22;5101;49.038;8.710;2023-04-24T07:37:23;15.60;81.80
10123;DHT22;5101;49.038;8.710;2023-04-24T07:39:49;15.50;79.80
10123;DHT22;5101;49.038;8.710;2023-04-24T07:42:15;15.60;79.50
10123;DHT22;5101;49.038;8.710;2023-04-24T07:44:40;15.70;79.10
10123;DHT22;5101;49.038;8.710;2023-04-24T07:47:06;16.00;78.40
10123;DHT22;5101;49.038;8.710;2023-04-24T07:49:31;16.20;77.20
10123;DHT22;5101;49.038;8.710;2023-04-24T07:51:59;16.10;76.30
10123;DHT22;5101;49.038;8.710;2023-04-24T07:54:26;15.90;76.10
10123;DHT22;5101;49.038;8.710;2023-04-24T07:56:51;15.80;75.90
10123;DHT22;5101;49.038;8.710;2023-04-24T07:59:17;15.80;75.80
10123;DHT22;5101;49.038;8.710;2023-04-24T08:01:42;15.80;75.70
10123;DHT22;5101;49.038;8.710;2023-04-24T08:04:07;15.80;75.70
10123;DHT22;5101;49.038;8.710;2023-04-24T08:06:33;15.80;75.70
10123;DHT22;5101;49.038;8.710;2023-04-24T08:08:59;15.80;75.20
10123;DHT22;5101;49.038;8.710;2023-04-24T08:11:25;15.60;74.80
10123;DHT22;5101;49.038;8.710;2023-04-24T08:13:51;15.50;74.80
10123;DHT22;5101;49.038;8.710;2023-04-24T08:16:16;15.30;74.80
10123;DHT22;5101;49.038;8.710;2023-04-24T08:18:42;14.90;74.90
10123;DHT22;5101;49.038;8.710;2023-04-24T08:21:07;14.80;75.60
10123;DHT22;5101;49.038;8.710;2023-04-24T08:23:33;14.40;75.60
10123;DHT22;5101;49.038;8.710;2023-04-24T08:25:58;14.10;76.20
10123;DHT22;5101;49.038;8.710;2023-04-24T08:28:24;14.10;76.80
10123;DHT22;5101;49.038;8.710;2023-04-24T08:30:49;13.80;77.10
10123;DHT22;5101;49.038;8.710;2023-04-24T08:33:22;13.60;77.50
10123;DHT22;5101;49.038;8.710;2023-04-24T08:35:48;13.50;78.00
10123;DHT22;5101;49.038;8.710;2023-04-24T08:38:14;13.50;78.70
10123;DHT22;5101;49.038;8.710;2023-04-24T08:40:40;13.50;79.30
10123;DHT22;5101;49.038;8.710;2023-04-24T08:43:06;13.60;80.30
10123;DHT22;5101;49.038;8.710;2023-04-24T08:45:32;13.80;80.40
10123;DHT22;5101;49.038;8.710;2023-04-24T08:47:58;13.90;80.20
10123;DHT22;5101;49.038;8.710;2023-04-24T08:50:25;14.00;79.80
10123;DHT22;5101;49.038;8.710;2023-04-24T08:52:51;13.90;80.10
10123;DHT22;5101;49.038;8.710;2023-04-24T08:55:19;13.80;79.40
10123;DHT22;5101;49.038;8.710;2023-04-24T08:57:49;13.80;79.20
10123;DHT22;5101;49.038;8.710;2023-04-24T09:00:16;13.80;79.40
10123;DHT22;5101;49.038;8.710;2023-04-24T09:02:45;13.70;79.70
10123;DHT22;5101;49.038;8.710;2023-04-24T09:05:12;13.70;80.00
10123;DHT22;5101;49.038;8.710;2023-04-24T09:07:39;13.60;80.10
10123;DHT22;5101;49.038;8.710;2023-04-24T09:10:07;13.50;80.30
10123;DHT22;5101;49.038;8.710;2023-04-24T09:12:34;13.50;80.50
10123;DHT22;5101;49.038;8.710;2023-04-24T09:15:00;13.70;81.20
10123;DHT22;5101;49.038;8.710;2023-04-24T09:17:28;14.10;81.70
10123;DHT22;5101;49.038;8.710;2023-04-24T09:19:54;14.30;81.40
10123;DHT22;5101;49.038;8.710;2023-04-24T09:22:20;14.60;81.20
10123;DHT22;5101;49.038;8.710;2023-04-24T09:24:46;14.80;81.50
10123;DHT22;5101;49.038;8.710;2023-04-24T09:27:12;15.00;80.20
10123;DHT22;5101;49.038;8.710;2023-04-24T09:29:38;15.20;79.50
10123;DHT22;5101;49.038;8.710;2023-04-24T09:32:21;15.60;79.50
10123;DHT22;5101;49.038;8.710;2023-04-24T09:34:47;15.70;77.20
10123;DHT22;5101;49.038;8.710;2023-04-24T09:37:27;15.70;76.30
10123;DHT22;5101;49.038;8.710;2023-04-24T09:40:14;15.70;75.30
10123;DHT22;5101;49.038;8.710;2023-04-24T09:42:51;15.60;74.50
10123;DHT22;5101;49.038;8.710;2023-04-24T09:45:16;15.60;74.40
10123;DHT22;5101;49.038;8.710;2023-04-24T09:47:42;15.50;73.90
10123;DHT22;5101;49.038;8.710;2023-04-24T09:50:11;15.20;73.90
10123;DHT22;5101;49.038;8.710;2023-04-24T09:52:44;15.00;73.60
10123;DHT22;5101;49.038;8.710;2023-04-24T09:55:19;14.90;73.70
10123;DHT22;5101;49.038;8.710;2023-04-24T09:58:03;14.70;73.70
10123;DHT22;5101;49.038;8.710;2023-04-24T10:00:32;14.60;74.00
10123;DHT22;5101;49.038;8.710;2023-04-24T10:03:02;14.50;74.30
10123;DHT22;5101;49.038;8.710;2023-04-24T10:05:36;14.40;74.80
10123;DHT22;5101;49.038;8.710;2023-04-24T10:08:11;14.30;74.70
10123;DHT22;5101;49.038;8.710;2023-04-24T10:10:44;14.20;74.70
10123;DHT22;5101;49.038;8.710;2023-04-24T10:13:11;14.20;74.60
10123;DHT22;5101;49.038;8.710;2023-04-24T10:15:38;14.10;74.30
10123;DHT22;5101;49.038;8.710;2023-04-24T10:18:05;14.10;74.50
10123;DHT22;5101;49.038;8.710;2023-04-24T10:20:33;14.30;74.50
10123;DHT22;5101;49.038;8.710;2023-04-24T10:22:59;14.60;74.50
10123;DHT22;5101;49.038;8.710;2023-04-24T10:25:27;14.80;74.20
10123;DHT22;5101;49.038;8.710;2023-04-24T10:27:54;15.00;73.70
10123;DHT22;5101;49.038;8.710;2023-04-24T10:30:23;15.10;73.90
10123;DHT22;5101;49.038;8.710;2023-04-24T10:32:48;15.30;74.60
10123;DHT22;5101;49.038;8.710;2023-04-24T10:35:15;15.50;74.00
10123;DHT22;5101;49.038;8.710;2023-04-24T10:37:44;15.70;73.80
10123;DHT22;5101;49.038;8.710;2023-04-24T10:40:12;15.80;73.30
10123;DHT22;5101;49.038;8.710;2023-04-24T10:42:41;16.00;73.10
10123;DHT22;5101;49.038;8.710;2023-04-24T10:45:19;16.00;71.90
10123;DHT22;5101;49.038;8.710;2023-04-24T10:47:59;15.90;71.00
10123;DHT22;5101;49.038;8.710;2023-04-24T10:50:42;15.80;70.00
10123;DHT22;5101;49.038;8.710;2023-04-24T10:53:20;15.60;70.20
10123;DHT22;5101;49.038;8.710;2023-04-24T10:58:35;15.40;69.70
10123;DHT22;5101;49.038;8.710;2023-04-24T11:01:01;15.10;70.00
10123;DHT22;5101;49.038;8.710;2023-04-24T11:03:28;15.00;70.20
10123;DHT22;5101;49.038;8.710;2023-04-24T11:06:08;14.80;70.60
10123;DHT22;5101;49.038;8.710;2023-04-24T11:08:44;14.60;71.70
10123;DHT22;5101;49.038;8.710;2023-04-24T11:14:01;14.50;73.50
10123;DHT22;5101;49.038;8.710;2023-04-24T11:22:02;14.70;74.30
10123;DHT22;5101;49.038;8.710;2023-04-24T11:24:29;14.70;74.20
10123;DHT22;5101;49.038;8.710;2023-04-24T11:26:59;14.50;75.10
10123;DHT22;5101;49.038;8.710;2023-04-24T11:30:05;14.20;79.50
10123;DHT22;5101;49.038;8.710;2023-04-24T11:34:58;13.80;83.50
10123;DHT22;5101;49.038;8.710;2023-04-24T11:37:33;13.80;85.20
10123;DHT22;5101;49.038;8.710;2023-04-24T11:39:59;13.80;87.20
10123;DHT22;5101;49.038;8.710;2023-04-24T11:42:24;13.70;89.10
10123;DHT22;5101;49.038;8.710;2023-04-24T11:44:52;13.70;90.30
10123;DHT22;5101;49.038;8.710;2023-04-24T11:47:18;13.70;91.00
10123;DHT22;5101;49.038;8.710;2023-04-24T11:49:44;13.70;91.10
10123;DHT22;5101;49.038;8.710;2023-04-24T11:52:10;13.60;91.10
10123;DHT22;5101;49.038;8.710;2023-04-24T11:54:36;13.70;91.30
10123;DHT22;5101;49.038;8.710;2023-04-24T11:57:04;13.60;91.60
10123;DHT22;5101;49.038;8.710;2023-04-24T11:59:35;13.60;91.90
10123;DHT22;5101;49.038;8.710;2023-04-24T12:02:01;13.70;91.90
10123;DHT22;5101;49.038;8.710;2023-04-24T12:04:38;13.70;91.90
10123;DHT22;5101;49.038;8.710;2023-04-24T12:07:04;13.70;91.70
10123;DHT22;5101;49.038;8.710;2023-04-24T12:09:47;13.60;91.50
10123;DHT22;5101;49.038;8.710;2023-04-24T12:12:15;13.60;91.30
10123;DHT22;5101;49.038;8.710;2023-04-24T12:17:09;13.70;91.20
10123;DHT22;5101;49.038;8.710;2023-04-24T12:19:34;13.60;91.20
10123;DHT22;5101;49.038;8.710;2023-04-24T12:22:04;13.60;91.30
10123;DHT22;5101;49.038;8.710;2023-04-24T12:24:31;13.60;91.10
10123;DHT22;5101;49.038;8.710;2023-04-24T12:26:57;13.50;91.20
10123;DHT22;5101;49.038;8.710;2023-04-24T12:29:23;13.60;91.50
10123;DHT22;5101;49.038;8.710;2023-04-24T12:31:50;13.70;91.50
10123;DHT22;5101;49.038;8.710;2023-04-24T12:34:21;13.80;91.50
10123;DHT22;5101;49.038;8.710;2023-04-24T12:36:47;14.00;91.70
10123;DHT22;5101;49.038;8.710;2023-04-24T12:39:17;14.10;91.60
10123;DHT22;5101;49.038;8.710;2023-04-24T12:41:58;14.20;91.30
10123;DHT22;5101;49.038;8.710;2023-04-24T12:44:37;14.20;90.50
10123;DHT22;5101;49.038;8.710;2023-04-24T12:47:02;14.20;90.10
10123;DHT22;5101;49.038;8.710;2023-04-24T12:49:30;14.10;89.70
10123;DHT22;5101;49.038;8.710;2023-04-24T12:51:55;14.10;88.70
10123;DHT22;5101;49.038;8.710;2023-04-24T12:54:21;14.10;88.80
10123;DHT22;5101;49.038;8.710;2023-04-24T12:56:47;14.10;87.90
10123;DHT22;5101;49.038;8.710;2023-04-24T12:59:13;14.10;87.60
10123;DHT22;5101;49.038;8.710;2023-04-24T13:01:38;14.10;87.30
10123;DHT22;5101;49.038;8.710;2023-04-24T13:04:05;14.10;86.90
10123;DHT22;5101;49.038;8.710;2023-04-24T13:06:30;14.10;86.20
10123;DHT22;5101;49.038;8.710;2023-04-24T13:08:56;14.10;86.30
10123;DHT22;5101;49.038;8.710;2023-04-24T13:11:23;14.20;85.10
10123;DHT22;5101;49.038;8.710;2023-04-24T13:13:49;14.20;84.10
10123;DHT22;5101;49.038;8.710;2023-04-24T13:16:14;14.20;83.50
10123;DHT22;5101;49.038;8.710;2023-04-24T13:18:40;14.20;82.80
10123;DHT22;5101;49.038;8.710;2023-04-24T13:21:05;14.20;82.20
10123;DHT22;5101;49.038;8.710;2023-04-24T13:23:31;14.30;82.10
10123;DHT22;5101;49.038;8.710;2023-04-24T13:25:57;14.50;82.10
10123;DHT22;5101;49.038;8.710;2023-04-24T13:28:23;14.50;81.30
10123;DHT22;5101;49.038;8.710;2023-04-24T13:30:49;14.60;80.70
10123;DHT22;5101;49.038;8.710;2023-04-24T13:33:15;14.60;80.50
10123;DHT22;5101;49.038;8.710;2023-04-24T13:35:40;14.70;80.60
10123;DHT22;5101;49.038;8.710;2023-04-24T13:38:06;14.70;80.20
10123;DHT22;5101;49.038;8.710;2023-04-24T13:40:32;14.50;79.50
10123;DHT22;5101;49.038;8.710;2023-04-24T13:42:58;14.40;79.40
10123;DHT22;5101;49.038;8.710;2023-04-24T13:45:23;14.40;79.70
10123;DHT22;5101;49.038;8.710;2023-04-24T13:47:49;14.30;79.90
10123;DHT22;5101;49.038;8.710;2023-04-24T13:50:14;14.50;80.20
10123;DHT22;5101;49.038;8.710;2023-04-24T13:52:40;14.60;80.40
10123;DHT22;5101;49.038;8.710;2023-04-24T13:55:06;14.70;80.40
10123;DHT22;5101;49.038;8.710;2023-04-24T13:57:32;14.70;80.00
10123;DHT22;5101;49.038;8.710;2023-04-24T13:59:58;14.70;79.30
10123;DHT22;5101;49.038;8.710;2023-04-24T14:02:27;14.70;79.00
10123;DHT22;5101;49.038;8.710;2023-04-24T14:04:52;14.70;79.00
10123;DHT22;5101;49.038;8.710;2023-04-24T14:07:18;14.60;78.80
10123;DHT22;5101;49.038;8.710;2023-04-24T14:09:43;14.70;79.20
10123;DHT22;5101;49.038;8.710;2023-04-24T14:12:09;14.80;78.60
10123;DHT22;5101;49.038;8.710;2023-04-24T14:14:35;14.70;78.70
10123;DHT22;5101;49.038;8.710;2023-04-24T14:17:00;14.70;79.60
10123;DHT22;5101;49.038;8.710;2023-04-24T14:19:26;14.60;79.10
10123;DHT22;5101;49.038;8.710;2023-04-24T14:21:51;14.60;79.10
10123;DHT22;5101;49.038;8.710;2023-04-24T14:24:17;14.50;78.90
10123;DHT22;5101;49.038;8.710;2023-04-24T14:26:42;14.50;79.20
10123;DHT22;5101;49.038;8.710;2023-04-24T14:29:08;14.50;79.50
10123;DHT22;5101;49.038;8.710;2023-04-24T14:31:33;14.60;79.60
10123;DHT22;5101;49.038;8.710;2023-04-24T14:33:59;14.70;79.60
10123;DHT22;5101;49.038;8.710;2023-04-24T14:36:24;14.70;79.50
10123;DHT22;5101;49.038;8.710;2023-04-24T14:38:50;14.80;79.30
10123;DHT22;5101;49.038;8.710;2023-04-24T14:41:15;14.80;79.10
10123;DHT22;5101;49.038;8.710;2023-04-24T14:43:41;14.80;78.80
10123;DHT22;5101;49.038;8.710;2023-04-24T14:46:07;14.70;78.20
10123;DHT22;5101;49.038;8.710;2023-04-24T14:48:32;14.60;77.70
10123;DHT22;5101;49.038;8.710;2023-04-24T14:50:57;14.60;78.60
10123;DHT22;5101;49.038;8.710;2023-04-24T14:53:23;14.60;79.90
10123;DHT22;5101;49.038;8.710;2023-04-24T14:55:49;14.50;81.30
10123;DHT22;5101;49.038;8.710;2023-04-24T14:58:14;14.50;82.00
10123;DHT22;5101;49.038;8.710;2023-04-24T15:00:40;14.40;82.00
10123;DHT22;5101;49.038;8.710;2023-04-24T15:03:05;14.40;82.20
10123;DHT22;5101;49.038;8.710;2023-04-24T15:05:31;14.40;82.60
10123;DHT22;5101;49.038;8.710;2023-04-24T15:07:57;14.50;82.90
10123;DHT22;5101;49.038;8.710;2023-04-24T15:10:22;14.50;82.70
10123;DHT22;5101;49.038;8.710;2023-04-24T15:12:49;14.40;82.80
10123;DHT22;5101;49.038;8.710;2023-04-24T15:15:14;14.40;82.20
10123;DHT22;5101;49.038;8.710;2023-04-24T15:17:40;14.40;81.20
10123;DHT22;5101;49.038;8.710;2023-04-24T15:20:06;14.40;80.40
10123;DHT22;5101;49.038;8.710;2023-04-24T15:22:32;14.40;80.20
10123;DHT22;5101;49.038;8.710;2023-04-24T15:24:57;14.30;79.60
10123;DHT22;5101;49.038;8.710;2023-04-24T15:27:23;14.30;79.30
10123;DHT22;5101;49.038;8.710;2023-04-24T15:29:49;14.40;79.30
10123;DHT22;5101;49.038;8.710;2023-04-24T15:32:14;14.40;78.60
10123;DHT22;5101;49.038;8.710;2023-04-24T15:34:40;14.40;77.90
10123;DHT22;5101;49.038;8.710;2023-04-24T15:37:05;14.30;77.90
10123;DHT22;5101;49.038;8.710;2023-04-24T15:39:31;14.30;77.80
10123;DHT22;5101;49.038;8.710;2023-04-24T15:41:56;14.30;77.90
10123;DHT22;5101;49.038;8.710;2023-04-24T15:44:22;14.20;77.50
10123;DHT22;5101;49.038;8.710;2023-04-24T15:46:48;14.30;77.50
10123;DHT22;5101;49.038;8.710;2023-04-24T15:49:13;14.20;77.50
10123;DHT22;5101;49.038;8.710;2023-04-24T15:51:39;14.20;77.50
10123;DHT22;5101;49.038;8.710;2023-04-24T15:54:05;14.20;77.40
10123;DHT22;5101;49.038;8.710;2023-04-24T15:56:30;14.20;77.40